• Join FlightAware (Why Join?)
  • Login
  • US Flag 
12:12PM EDT


 

Airport Tracker/Info


-or-


 

Live Flight TrackerFlight Track Log ✈ UAL1259 ✈ 25-Apr-2013 ✈ KLAX - KSFO

Flight Track Log - Related Links

Times and Time Zones

All times are in EDT time to prevent confusion due to time zone crossing. See the UAL1259 flight status page for this flight to view local times or setup timezone preferences in your user account.

Time Position Orientation Groundspeed Altitude Reporting Facility
EDT Latitude Longitude Course Direction KTS MPH feet Rate Location/Type
09:39PM 33.9290 -118.4950 265° West 226 260 3,300  Level FlightAware
09:39PM 33.9270 -118.5300 266° West 257 296 4,200 2,820 Climbing FlightAware
09:40PM 33.9210 -118.5750 261° West 272 313 5,900 3,240 Climbing FlightAware
09:40PM 33.9170 -118.6110 262° West 277 319 7,200 3,360 Climbing FlightAware
09:41PM 33.9120 -118.6520 262° West 282 325 8,700 3,120 Climbing FlightAware
09:41PM 33.9040 -118.7180 262° West 295 339 10,900 3,120 Climbing FlightAware
09:42PM 33.8950 -118.7960 262° West 301 346 13,400 3,120 Climbing FlightAware
09:43PM 33.8880 -118.8630 263° West 304 350 15,400 2,700 Climbing FlightAware
09:44PM 33.8950 -118.9500 276° West 313 360 17,700 2,460 Climbing FlightAware
09:44PM 33.9440 -119.0110 314° West 324 373 19,500 2,400 Climbing FlightAware
09:45PM 33.9830 -119.0640 312° West 327 376 21,100 2,280 Climbing FlightAware
09:46PM 34.0280 -119.1260 311° West 332 382 22,800 2,040 Climbing FlightAware
09:47PM 34.0700 -119.1810 313° West 341 392 24,000 1,380 Climbing FlightAware
09:47PM 34.1150 -119.2400 313° West 368 423 24,700 660 Climbing FlightAware
09:48PM 34.1710 -119.3150 312° West 406 467 25,000 480 Climbing FlightAware
09:49PM 34.2210 -119.3820 312° West 429 494 25,400 540 Climbing FlightAware
09:49PM 34.2780 -119.4590 312° West 436 502 25,800 1,200 Climbing FlightAware
09:50PM 34.3200 -119.5150 312° West 449 517 26,900 1,620 Climbing FlightAware
09:51PM 34.3920 -119.6120 312° West 455 524 28,000 840 Climbing FlightAware
09:51PM 34.4490 -119.6910 311° West 454 522 28,300 1,800 Climbing FlightAware
09:52PM 34.5130 -119.7740 313° West 446 513 30,600 2,520 Climbing FlightAware
09:53PM 34.5740 -119.8420 317° Northwest 441 507 31,700 1,440 Climbing FlightAware
09:54PM 34.6410 -119.9140 319° Northwest 439 505 32,700 1,200 Climbing FlightAware
09:54PM 34.6940 -119.9720 318° Northwest 443 510 33,300 1,080 Climbing FlightAware
09:55PM 34.7690 -120.0550 318° Northwest 441 507 34,300 1,320 Climbing FlightAware
09:56PM 34.8320 -120.1240 318° Northwest 434 499 35,300 1,200 Climbing FlightAware
09:56PM 34.8960 -120.1940 318° Northwest 433 498 36,000 420 Climbing FlightAware
09:57PM 34.9780 -120.2840 318° Northwest 436 502 36,000  Level FlightAware
09:58PM 35.0310 -120.3450 317° Northwest 436 502 36,000  Level FlightAware
09:59PM 35.0990 -120.4190 318° Northwest 435 501 36,000  Level FlightAware
09:59PM 35.1650 -120.4920 318° Northwest 435 501 36,000  Level FlightAware
10:00PM 35.2100 -120.5410 318° Northwest 434 499 36,000  Level FlightAware
10:01PM 35.2930 -120.6350 317° Northwest 433 498 36,000  Level FlightAware
10:02PM 35.3720 -120.7220 318° Northwest 432 497 36,000  Level FlightAware
10:02PM 35.4330 -120.7900 318° Northwest 432 497 36,000  Level FlightAware
10:03PM 35.4990 -120.8660 317° Northwest 432 497 36,000  Level FlightAware
10:04PM 35.5580 -120.9320 318° Northwest 432 497 36,000  Level FlightAware
10:05PM 35.6230 -121.0050 318° Northwest 432 497 36,000  Level FlightAware
10:05PM 35.6820 -121.0720 317° Northwest 431 496 36,000  Level FlightAware
10:06PM 35.7410 -121.1380 318° Northwest 431 496 36,000  Level FlightAware
10:07PM 35.8070 -121.2140 317° Northwest 431 496 36,000  Level FlightAware
10:07PM 35.8660 -121.2800 318° Northwest 430 495 36,000  Level FlightAware
10:08PM 35.9310 -121.3550 317° Northwest 430 495 36,000 -540 Level FlightAware
10:09PM 35.9880 -121.4200 317° Northwest 441 507 35,300 -1,020 Descending FlightAware
10:09PM 36.0510 -121.4920 317° Northwest 454 522 34,700 -1,860 Descending FlightAware
10:10PM 36.1030 -121.5520 317° Northwest 455 524 33,000 -3,060 Descending FlightAware
10:11PM 36.1810 -121.6410 317° Northwest 457 526 30,400 -2,940 Descending FlightAware
10:12PM 36.2610 -121.7110 325° Northwest 441 507 28,400 -2,520 Descending FlightAware
10:12PM 36.3240 -121.7650 325° Northwest 430 495 26,900 -2,340 Descending FlightAware
10:13PM 36.3860 -121.8200 324° Northwest 421 484 25,300 -2,400 Descending FlightAware
10:14PM 36.4640 -121.8790 329° Northwest 404 465 23,500 -2,280 Descending FlightAware
10:14PM 36.5340 -121.9030 345° North 391 450 22,100 -2,220 Descending FlightAware
10:15PM 36.5990 -121.9220 347° North 384 442 20,600 -2,280 Descending FlightAware
10:16PM 36.6800 -121.9450 347° North 372 428 18,900 -2,340 Descending FlightAware
10:17PM 36.7680 -121.9710 347° North 372 428 16,700 -2,340 Descending FlightAware
10:17PM 36.8450 -121.9900 349° North 355 409 15,000 -2,160 Descending FlightAware
10:18PM 36.9100 -122.0080 348° North 346 398 13,700 -1,980 Descending FlightAware
10:19PM 36.9790 -122.0260 348° North 340 391 12,200 -1,980 Descending FlightAware
10:19PM 37.0380 -122.0410 349° North 334 384 10,900 -1,500 Descending FlightAware
10:20PM 37.0990 -122.0570 348° North 310 357 10,200 -720 Descending FlightAware
10:21PM 37.1550 -122.0720 348° North 283 326 9,900 -720 Descending FlightAware
10:21PM 37.1950 -122.0830 348° North 279 321 9,300 -1,200 Descending FlightAware
10:22PM 37.2410 -122.0950 348° North 277 319 8,500 -1,440 Descending FlightAware
10:22PM 37.2740 -122.1030 349° North 274 315 7,900 -1,440 Descending FlightAware
10:23PM 37.3110 -122.1130 348° North 273 314 7,200 -1,440 Descending FlightAware
10:23PM 37.3410 -122.1210 348° North 269 310 6,600 -1,560 Descending FlightAware
10:24PM 37.3810 -122.1320 348° North 270 311 5,800 -1,500 Descending FlightAware
10:24PM 37.4170 -122.1410 349° North 265 305 5,100 -1,020 Descending FlightAware
10:25PM 37.4530 -122.1500 349° North 248 285 4,800 -360 Descending FlightAware
10:25PM 37.4770 -122.1570 347° North 224 258 4,800 -600 Level FlightAware
10:26PM 37.5030 -122.1640 348° North 218 251 4,300 -1,380 Descending FlightAware
10:26PM 37.5170 -122.1690 344° North 216 249 3,900 -1,380 Descending FlightAware
10:26PM 37.5410 -122.1910 324° Northwest 206 237 3,300 -960 Descending FlightAware
10:27PM 37.5470 -122.2050 298° West 188 216 3,200 -900 Descending FlightAware
10:27PM 37.5550 -122.2230 299° West 176 203 2,800 -1,320 Descending FlightAware
10:28PM 37.5670 -122.2510 298° West 170 196 2,000 -840 Descending FlightAware
10:28PM 37.5750 -122.2700 298° West 170 196 2,000  Level FlightAware